Time;durP1;ratioP1;P1;durP2;ratioP2;P2;SDS_P1;SDS_P2;PMS_P1;PMS_P2;Temp;Humidity;BMP_temperature;BMP_pressure;BME280_temperature;BME280_humidity;BME280_pressure;Samples;Min_cycle;Max_cycle;Signal;HPM_P1;HPM_P2
2022/10/20 00:01:15;;;;;;;10.23;5.65;;;13.70;99.90;;;;;;5092852;28;20544;-80
2022/10/20 00:03:41;;;;;;;9.35;5.13;;;13.70;99.90;;;;;;5093866;28;20084;-80
2022/10/20 00:06:16;;;;;;;11.07;5.15;;;13.70;99.90;;;;;;5092890;28;20376;-79
2022/10/20 00:08:43;;;;;;;8.82;4.80;;;13.70;99.90;;;;;;5103867;28;20032;-81
2022/10/20 00:11:10;;;;;;;10.82;5.03;;;13.70;99.90;;;;;;5101131;28;20028;-80
2022/10/20 00:13:37;;;;;;;9.90;5.45;;;13.70;99.90;;;;;;5102809;28;20032;-80
2022/10/20 00:16:03;;;;;;;10.73;4.90;;;13.70;99.90;;;;;;5103164;28;20235;-81
2022/10/20 00:18:29;;;;;;;11.20;5.00;;;13.70;99.90;;;;;;5103346;28;20078;-80
2022/10/20 00:20:55;;;;;;;14.13;5.82;;;13.70;99.90;;;;;;5093379;28;20024;-80
2022/10/20 00:23:21;;;;;;;8.07;5.00;;;13.80;99.90;;;;;;5092986;28;20467;-80
2022/10/20 00:25:47;;;;;;;10.88;5.40;;;13.70;99.90;;;;;;5091973;28;20027;-81
2022/10/20 00:28:13;;;;;;;9.50;4.93;;;13.70;99.90;;;;;;5104313;28;20043;-80
2022/10/20 00:30:39;;;;;;;8.10;4.53;;;13.70;99.90;;;;;;5084634;28;20062;-80
2022/10/20 00:33:05;;;;;;;8.07;4.50;;;13.70;99.90;;;;;;5084932;28;20047;-80
2022/10/20 00:35:32;;;;;;;9.95;4.80;;;13.70;99.90;;;;;;5085627;28;20043;-79
2022/10/20 00:37:58;;;;;;;7.80;4.78;;;13.70;99.90;;;;;;5102682;28;20028;-79
2022/10/20 00:40:24;;;;;;;9.73;4.82;;;13.60;99.90;;;;;;5085693;28;20156;-80
2022/10/20 00:42:50;;;;;;;9.95;4.65;;;13.60;99.90;;;;;;5085400;28;20472;-80
2022/10/20 00:45:21;;;;;;;7.78;4.65;;;13.60;99.90;;;;;;5083013;28;20032;-80
2022/10/20 00:47:52;;;;;;;5.43;3.33;;;13.70;99.90;;;;;;5082481;28;20111;-81
2022/10/20 00:50:36;;;;;;;8.55;4.93;;;13.60;99.90;;;;;;5086210;28;20036;-80
2022/10/20 00:53:02;;;;;;;7.43;4.65;;;13.60;99.90;;;;;;5084601;28;20077;-80
2022/10/20 00:55:31;;;;;;;10.63;4.75;;;13.50;99.90;;;;;;5083010;28;20035;-80
2022/10/20 00:57:59;;;;;;;10.70;5.22;;;13.50;99.90;;;;;;5084023;28;20458;-80
2022/10/20 01:00:25;;;;;;;7.82;4.63;;;13.50;99.90;;;;;;5084559;28;20509;-80
2022/10/20 01:02:54;;;;;;;9.32;5.07;;;13.50;99.90;;;;;;5083789;28;20028;-80
2022/10/20 01:05:20;;;;;;;7.97;4.75;;;13.50;99.90;;;;;;5084285;28;20451;-80
2022/10/20 01:07:45;;;;;;;9.32;4.65;;;13.40;99.90;;;;;;5102987;28;20080;-80
2022/10/20 01:10:12;;;;;;;7.88;4.78;;;13.40;99.90;;;;;;5083018;28;20028;-79
2022/10/20 01:12:44;;;;;;;10.95;4.68;;;13.40;99.90;;;;;;5083668;28;20972;-80
2022/10/20 01:15:38;;;;;;;15.02;5.47;;;13.40;99.90;;;;;;5083699;28;20055;-80
2022/10/20 01:18:03;;;;;;;7.55;4.47;;;13.40;99.90;;;;;;5083370;28;20035;-80
2022/10/20 01:20:51;;;;;;;9.45;4.50;;;13.40;99.90;;;;;;5083721;28;20110;-80
2022/10/20 01:23:45;;;;;;;10.93;4.97;;;13.40;99.90;;;;;;5086080;28;20049;-80
2022/10/20 01:26:11;;;;;;;6.95;4.63;;;13.40;99.90;;;;;;5087825;28;20034;-80
2022/10/20 01:28:47;;;;;;;8.15;4.25;;;13.40;99.90;;;;;;5104989;28;20023;-79
2022/10/20 01:31:36;;;;;;;7.75;4.78;;;13.40;99.90;;;;;;5088630;28;20038;-80
2022/10/20 01:34:27;;;;;;;14.63;4.68;;;13.50;99.90;;;;;;5077016;28;20403;-80
2022/10/20 01:37:38;;;;;;;8.95;4.63;;;13.40;99.90;;;;;;5086559;28;20038;-79
2022/10/20 01:40:26;;;;;;;8.10;4.55;;;13.50;99.90;;;;;;5076493;28;20070;-80
2022/10/20 01:42:53;;;;;;;8.73;5.10;;;13.40;99.90;;;;;;5087165;28;20062;-81
2022/10/20 01:45:22;;;;;;;9.07;4.95;;;13.40;99.90;;;;;;5087336;28;20024;-81
2022/10/20 01:47:50;;;;;;;7.68;4.93;;;13.40;99.90;;;;;;5084465;28;20059;-81
2022/10/20 01:50:17;;;;;;;8.27;4.88;;;13.50;99.90;;;;;;5087594;28;20038;-80
2022/10/20 01:52:43;;;;;;;8.40;4.70;;;13.50;99.90;;;;;;5106140;28;20023;-80
2022/10/20 01:55:11;;;;;;;11.13;4.82;;;13.40;99.90;;;;;;5085623;28;20040;-81
2022/10/20 01:57:53;;;;;;;8.50;4.82;;;13.40;99.90;;;;;;5088731;28;20051;-80
2022/10/20 02:00:19;;;;;;;7.53;4.82;;;13.50;99.90;;;;;;5104866;28;20027;-80
2022/10/20 02:03:18;;;;;;;13.23;5.32;;;13.50;99.90;;;;;;5085194;28;20027;-81
2022/10/20 02:06:03;;;;;;;10.90;4.70;;;13.50;99.90;;;;;;5087980;28;20464;-80
2022/10/20 02:08:46;;;;;;;9.98;5.25;;;13.50;99.90;;;;;;5086043;28;20527;-81
2022/10/20 02:11:21;;;;;;;9.73;4.75;;;13.40;99.90;;;;;;5088003;28;20023;-80
2022/10/20 02:13:50;;;;;;;12.07;5.40;;;13.40;99.90;;;;;;5087048;28;20020;-79
2022/10/20 02:16:23;;;;;;;14.20;5.28;;;13.50;99.90;;;;;;5086197;28;20055;-80
2022/10/20 02:18:49;;;;;;;8.40;4.15;;;13.50;99.90;;;;;;5085759;28;20514;-81
2022/10/20 02:21:16;;;;;;;8.82;5.07;;;13.50;99.90;;;;;;5086139;28;20024;-80
2022/10/20 02:23:45;;;;;;;10.68;5.30;;;13.50;99.90;;;;;;5104917;28;20068;-80
2022/10/20 02:26:15;;;;;;;8.48;4.90;;;13.50;99.90;;;;;;5085644;28;20024;-80
2022/10/20 02:28:46;;;;;;;9.88;5.30;;;13.50;99.90;;;;;;5105921;28;20024;-80
2022/10/20 02:31:12;;;;;;;9.68;5.18;;;13.50;99.90;;;;;;5086605;28;20396;-81
2022/10/20 02:33:39;;;;;;;11.38;5.45;;;13.50;99.90;;;;;;5085429;28;20032;-81
2022/10/20 02:36:11;;;;;;;8.82;5.07;;;13.50;99.90;;;;;;5103709;28;20034;-81
2022/10/20 02:38:36;;;;;;;9.18;5.35;;;13.50;99.90;;;;;;5084932;28;20149;-81
2022/10/20 02:41:02;;;;;;;12.15;6.05;;;13.60;99.90;;;;;;5086665;28;20067;-81
2022/10/20 02:43:28;;;;;;;11.15;6.13;;;13.50;99.90;;;;;;5103418;28;20031;-81
2022/10/20 02:45:53;;;;;;;10.40;5.18;;;13.50;99.90;;;;;;5084956;28;20168;-83
2022/10/20 02:48:19;;;;;;;11.90;4.82;;;13.50;99.90;;;;;;5086499;28;20028;-81
2022/10/20 02:50:44;;;;;;;12.02;5.97;;;13.60;99.90;;;;;;5105875;28;20028;-80
2022/10/20 02:53:10;;;;;;;11.63;5.55;;;13.50;99.90;;;;;;5085178;28;20519;-81
2022/10/20 02:55:35;;;;;;;8.85;5.07;;;13.50;99.90;;;;;;5086700;28;20060;-80
2022/10/20 02:58:01;;;;;;;10.27;5.68;;;13.50;99.90;;;;;;5084991;28;20089;-81
2022/10/20 03:00:29;;;;;;;9.52;5.55;;;13.50;99.90;;;;;;5086950;28;20461;-81
2022/10/20 03:02:55;;;;;;;12.65;5.75;;;13.50;99.90;;;;;;5087021;28;20024;-82
2022/10/20 03:05:21;;;;;;;12.45;6.25;;;13.50;99.90;;;;;;5086323;28;20032;-81
2022/10/20 03:07:46;;;;;;;10.50;5.32;;;13.50;99.90;;;;;;5087060;28;20509;-81
2022/10/20 03:10:12;;;;;;;9.98;6.05;;;13.60;99.90;;;;;;5059970;28;20041;-81
2022/10/20 03:12:38;;;;;;;11.68;5.38;;;13.50;99.90;;;;;;5046588;28;20041;-81
2022/10/20 03:15:04;;;;;;;10.27;6.07;;;13.60;99.90;;;;;;5043948;28;20146;-82
2022/10/20 03:17:29;;;;;;;10.43;5.75;;;13.60;99.90;;;;;;5042699;28;20025;-81
2022/10/20 03:19:55;;;;;;;10.60;5.57;;;13.60;99.90;;;;;;5042918;28;20402;-82
2022/10/20 03:22:21;;;;;;;9.65;5.45;;;13.60;99.90;;;;;;5044111;28;20025;-80
2022/10/20 03:24:46;;;;;;;10.20;5.63;;;13.50;99.90;;;;;;5043995;28;20069;-81
2022/10/20 03:27:12;;;;;;;8.98;5.47;;;13.50;99.90;;;;;;5043000;28;20513;-80
2022/10/20 03:29:37;;;;;;;10.02;5.30;;;13.50;99.90;;;;;;5044827;28;20029;-80
2022/10/20 03:32:03;;;;;;;11.93;5.05;;;13.40;99.90;;;;;;5059926;28;20071;-81
2022/10/20 03:34:30;;;;;;;9.63;5.20;;;13.40;99.90;;;;;;5043993;28;20114;-82
2022/10/20 03:36:55;;;;;;;8.23;5.13;;;13.40;99.90;;;;;;5043931;28;20041;-83
2022/10/20 03:39:21;;;;;;;12.25;5.18;;;13.50;99.90;;;;;;5043225;28;20077;-81
2022/10/20 03:41:47;;;;;;;9.55;5.07;;;13.40;99.90;;;;;;5071248;28;20036;-82
2022/10/20 03:44:12;;;;;;;10.30;5.15;;;13.40;99.90;;;;;;5083663;28;20492;-81
2022/10/20 03:46:38;;;;;;;11.55;4.95;;;13.40;99.90;;;;;;5081830;28;20020;-80
2022/10/20 03:49:04;;;;;;;11.57;5.30;;;13.40;99.90;;;;;;5081226;28;20118;-80
2022/10/20 03:51:29;;;;;;;10.40;5.50;;;13.40;99.90;;;;;;5081137;28;20024;-81
2022/10/20 03:53:55;;;;;;;13.02;5.55;;;13.30;99.90;;;;;;5080325;28;20065;-80
2022/10/20 03:56:21;;;;;;;9.73;5.22;;;13.30;99.90;;;;;;5082064;28;20107;-80
2022/10/20 03:58:47;;;;;;;11.27;5.32;;;13.30;99.90;;;;;;5084399;28;20028;-80
2022/10/20 04:01:18;;;;;;;15.10;5.38;;;13.30;99.90;;;;;;5080612;28;20027;-80
2022/10/20 04:03:43;;;;;;;10.07;5.28;;;13.30;99.90;;;;;;5080032;28;20028;-81
2022/10/20 04:06:11;;;;;;;11.50;5.30;;;13.30;99.90;;;;;;5081952;28;20032;-80
2022/10/20 04:08:37;;;;;;;12.80;5.35;;;13.20;99.90;;;;;;5080867;28;20035;-80
2022/10/20 04:11:02;;;;;;;13.77;5.40;;;13.20;99.90;;;;;;5081041;28;20054;-80
2022/10/20 04:13:28;;;;;;;9.88;4.97;;;13.20;99.90;;;;;;5083004;28;20119;-80
2022/10/20 04:15:53;;;;;;;9.88;5.32;;;13.20;99.90;;;;;;5081278;28;20054;-80
2022/10/20 04:18:19;;;;;;;9.52;4.93;;;13.20;99.90;;;;;;5079006;28;20059;-80
2022/10/20 04:20:47;;;;;;;9.85;5.20;;;13.20;99.90;;;;;;5082631;28;20050;-81
2022/10/20 04:23:12;;;;;;;8.18;4.68;;;13.20;99.90;;;;;;5081987;28;20042;-79
2022/10/20 04:25:46;;;;;;;10.25;5.70;;;13.20;99.90;;;;;;5079213;28;20036;-80
2022/10/20 04:28:13;;;;;;;9.70;5.22;;;13.10;99.90;;;;;;5083480;28;20070;-80
2022/10/20 04:30:39;;;;;;;10.38;5.85;;;13.10;99.90;;;;;;5081404;28;20051;-80
2022/10/20 04:33:04;;;;;;;10.95;5.35;;;13.00;99.90;;;;;;5081984;28;20028;-81
2022/10/20 04:35:30;;;;;;;14.65;5.32;;;13.00;99.90;;;;;;5082277;28;20047;-80
2022/10/20 04:37:55;;;;;;;9.35;5.63;;;12.90;99.90;;;;;;5086427;28;20439;-79
2022/10/20 04:40:21;;;;;;;9.30;4.78;;;12.90;99.90;;;;;;5083094;28;20021;-80
2022/10/20 04:42:47;;;;;;;9.13;5.05;;;12.90;99.90;;;;;;5080648;28;20525;-79
2022/10/20 04:45:12;;;;;;;11.05;5.05;;;12.90;99.90;;;;;;5079549;28;20035;-80
2022/10/20 04:47:38;;;;;;;9.98;5.30;;;12.90;99.90;;;;;;5082581;28;20075;-80
2022/10/20 04:50:04;;;;;;;9.23;4.95;;;12.90;99.90;;;;;;5083566;28;20161;-81
2022/10/20 04:52:30;;;;;;;8.65;5.03;;;12.90;99.90;;;;;;5080847;28;20362;-80
2022/10/20 04:54:56;;;;;;;14.68;5.82;;;12.90;99.90;;;;;;5081684;28;20042;-80
2022/10/20 04:57:21;;;;;;;13.70;5.55;;;12.90;99.90;;;;;;5084839;28;20107;-80
2022/10/20 04:59:47;;;;;;;9.57;5.47;;;12.90;99.90;;;;;;5086154;28;20095;-81
2022/10/20 05:02:13;;;;;;;11.38;5.88;;;12.90;99.90;;;;;;5085483;28;20111;-80
2022/10/20 05:04:39;;;;;;;10.50;6.38;;;12.90;99.90;;;;;;5087015;28;20040;-80
2022/10/20 05:07:04;;;;;;;13.10;5.30;;;12.90;99.90;;;;;;5084749;28;20036;-81
2022/10/20 05:09:31;;;;;;;9.60;5.78;;;12.90;99.90;;;;;;5086974;28;20031;-80
2022/10/20 05:11:58;;;;;;;12.82;5.82;;;12.90;99.90;;;;;;5083715;28;20064;-81
2022/10/20 05:14:23;;;;;;;10.85;5.38;;;12.80;99.90;;;;;;5084719;28;20028;-79
2022/10/20 05:16:50;;;;;;;12.13;5.70;;;12.90;99.90;;;;;;5083199;28;20036;-80
2022/10/20 05:19:16;;;;;;;10.50;6.03;;;12.90;99.90;;;;;;5083746;28;20113;-79
2022/10/20 05:21:43;;;;;;;13.55;5.72;;;12.90;99.90;;;;;;5084904;28;20076;-80
2022/10/20 05:24:14;;;;;;;11.45;5.80;;;12.90;99.90;;;;;;5083744;28;20155;-81
2022/10/20 05:26:39;;;;;;;12.20;5.45;;;12.90;99.90;;;;;;5087035;28;20504;-80
2022/10/20 05:29:07;;;;;;;12.85;5.53;;;12.90;99.90;;;;;;5093735;28;20028;-81
2022/10/20 05:31:42;;;;;;;12.40;6.20;;;12.90;99.90;;;;;;5094218;28;20107;-79
2022/10/20 05:34:09;;;;;;;10.50;5.35;;;12.80;99.90;;;;;;5093030;28;20427;-79
2022/10/20 05:36:35;;;;;;;8.30;4.90;;;12.80;99.90;;;;;;5093384;28;20389;-80
2022/10/20 05:39:01;;;;;;;10.45;6.30;;;12.80;99.90;;;;;;5094083;28;20029;-80
2022/10/20 05:41:30;;;;;;;11.82;6.40;;;12.80;99.90;;;;;;5094408;28;20107;-80
2022/10/20 05:43:59;;;;;;;11.10;5.97;;;12.80;99.90;;;;;;5091602;28;20027;-80
2022/10/20 05:46:26;;;;;;;11.80;5.43;;;12.80;99.90;;;;;;5093031;28;20166;-80
2022/10/20 05:48:54;;;;;;;13.15;5.78;;;12.80;99.90;;;;;;5095684;28;20031;-80
2022/10/20 05:51:23;;;;;;;12.25;6.35;;;12.80;99.90;;;;;;5093620;28;20107;-79
2022/10/20 05:53:50;;;;;;;11.35;5.93;;;12.70;99.90;;;;;;5094130;28;20028;-78
2022/10/20 05:56:19;;;;;;;12.75;6.50;;;12.80;99.90;;;;;;5094231;28;20032;-80
2022/10/20 05:58:46;;;;;;;10.82;6.28;;;12.70;99.90;;;;;;5094066;28;20093;-80
2022/10/20 06:01:38;;;;;;;14.60;6.38;;;12.80;99.90;;;;;;5093325;28;20078;-79
2022/10/20 06:04:04;;;;;;;10.55;6.00;;;12.80;99.90;;;;;;5093536;28;20039;-81
2022/10/20 06:06:30;;;;;;;11.90;6.15;;;12.70;99.90;;;;;;5093532;28;20036;-79
2022/10/20 06:08:57;;;;;;;10.02;5.70;;;12.70;99.90;;;;;;5093505;28;20031;-79
2022/10/20 06:11:24;;;;;;;11.35;6.60;;;12.70;99.90;;;;;;5093048;28;20028;-79
2022/10/20 06:13:50;;;;;;;11.55;6.20;;;12.70;99.90;;;;;;5091797;28;20024;-80
2022/10/20 06:16:19;;;;;;;13.10;5.88;;;12.70;99.90;;;;;;5093036;28;20420;-79
2022/10/20 06:18:45;;;;;;;11.63;6.05;;;12.60;99.90;;;;;;5092886;28;20025;-80
2022/10/20 06:21:13;;;;;;;9.65;5.90;;;12.60;99.90;;;;;;5093248;28;20073;-79
2022/10/20 06:23:38;;;;;;;16.63;6.68;;;12.60;99.90;;;;;;5094163;28;20090;-79
2022/10/20 06:26:07;;;;;;;13.82;5.65;;;12.60;99.90;;;;;;5093994;28;20342;-81
2022/10/20 06:28:34;;;;;;;13.27;6.60;;;12.50;99.90;;;;;;5101933;28;20077;-80
2022/10/20 06:31:08;;;;;;;10.32;5.88;;;12.60;99.90;;;;;;5090752;28;20027;-80
2022/10/20 06:33:33;;;;;;;9.32;6.22;;;12.60;99.90;;;;;;5104647;28;20749;-80
2022/10/20 06:36:02;;;;;;;13.23;6.88;;;12.60;99.90;;;;;;5105271;28;20082;-81
2022/10/20 06:38:28;;;;;;;12.45;6.90;;;12.60;99.90;;;;;;5080830;28;20065;-80
2022/10/20 06:40:53;;;;;;;11.32;5.70;;;12.60;99.90;;;;;;5099183;28;20400;-80
2022/10/20 06:43:19;;;;;;;10.50;5.70;;;12.60;99.90;;;;;;5086392;28;20028;-81
2022/10/20 06:45:56;;;;;;;13.57;6.07;;;12.70;99.90;;;;;;5089246;28;20067;-80
2022/10/20 06:48:22;;;;;;;11.88;6.35;;;12.70;99.90;;;;;;5087022;28;20030;-80
2022/10/20 06:50:47;;;;;;;9.98;6.15;;;12.70;99.90;;;;;;5087525;28;20027;-80
2022/10/20 06:53:13;;;;;;;13.38;6.10;;;12.80;99.90;;;;;;5103081;28;20094;-81
2022/10/20 06:55:38;;;;;;;12.20;5.88;;;12.80;99.90;;;;;;5085843;28;20031;-80
2022/10/20 06:58:04;;;;;;;11.50;5.88;;;12.80;99.90;;;;;;5102529;28;20411;-80
2022/10/20 07:00:29;;;;;;;12.43;5.82;;;12.90;99.90;;;;;;5085756;28;20105;-80
2022/10/20 07:02:55;;;;;;;14.07;6.07;;;12.80;99.90;;;;;;5086881;28;20031;-81
2022/10/20 07:05:21;;;;;;;12.57;6.32;;;12.90;99.90;;;;;;5084686;28;20035;-80
2022/10/20 07:07:46;;;;;;;14.98;6.90;;;12.90;99.90;;;;;;5085154;28;20027;-80
2022/10/20 07:10:12;;;;;;;11.80;6.13;;;13.00;99.90;;;;;;5085315;28;20028;-79
2022/10/20 07:12:38;;;;;;;17.63;6.50;;;12.90;99.90;;;;;;5102195;28;20028;-81
2022/10/20 07:15:05;;;;;;;9.80;5.72;;;13.00;99.90;;;;;;5085007;28;20063;-81
2022/10/20 07:17:30;;;;;;;11.10;6.22;;;13.00;99.90;;;;;;5085436;28;20072;-82
2022/10/20 07:19:56;;;;;;;13.50;6.50;;;13.00;99.90;;;;;;5085065;28;20019;-82
2022/10/20 07:22:22;;;;;;;12.82;6.60;;;13.10;99.90;;;;;;5085174;28;20019;-82
2022/10/20 07:24:47;;;;;;;13.25;6.28;;;13.10;99.90;;;;;;5086456;28;20032;-81
2022/10/20 07:27:13;;;;;;;11.52;6.35;;;13.10;99.90;;;;;;5089332;28;20048;-81
2022/10/20 07:29:38;;;;;;;9.68;6.13;;;13.10;99.90;;;;;;5094166;28;20020;-80
2022/10/20 07:32:04;;;;;;;11.70;6.07;;;13.10;99.90;;;;;;5094069;28;20020;-80
2022/10/20 07:34:30;;;;;;;11.23;6.18;;;13.10;99.90;;;;;;5093726;28;20105;-80
2022/10/20 07:36:56;;;;;;;11.60;6.65;;;13.20;99.90;;;;;;5102509;28;20078;-79
2022/10/20 07:39:23;;;;;;;12.02;5.85;;;13.30;99.90;;;;;;5093120;28;20028;-79
2022/10/20 07:41:49;;;;;;;16.48;6.45;;;13.30;99.90;;;;;;5093306;28;20031;-79
2022/10/20 07:44:15;;;;;;;13.55;5.93;;;13.30;99.90;;;;;;5095374;28;20039;-79
2022/10/20 07:46:40;;;;;;;14.48;6.85;;;13.40;99.90;;;;;;5094122;28;20025;-77
2022/10/20 07:49:06;;;;;;;13.13;6.07;;;13.40;99.90;;;;;;5103702;28;20023;-78
2022/10/20 07:51:33;;;;;;;13.10;6.57;;;13.40;99.90;;;;;;5093608;28;20024;-79
2022/10/20 07:54:02;;;;;;;14.65;6.25;;;13.50;99.90;;;;;;5094516;28;20069;-80
2022/10/20 07:56:30;;;;;;;11.57;5.90;;;13.40;99.90;;;;;;5094212;28;20107;-78
2022/10/20 07:58:56;;;;;;;11.18;5.93;;;13.50;99.90;;;;;;5093489;28;20024;-80
2022/10/20 08:01:21;;;;;;;11.88;6.60;;;13.50;99.90;;;;;;5102847;28;20024;-79
2022/10/20 08:03:47;;;;;;;14.65;6.07;;;13.50;99.90;;;;;;5093141;28;20024;-78
2022/10/20 08:06:12;;;;;;;15.70;6.15;;;13.50;99.90;;;;;;5094625;28;20038;-79
2022/10/20 08:08:38;;;;;;;14.18;6.65;;;13.60;99.90;;;;;;5094896;28;20483;-79
2022/10/20 08:11:04;;;;;;;20.75;6.28;;;13.60;99.90;;;;;;5100318;28;20032;-79
2022/10/20 08:13:30;;;;;;;12.40;6.13;;;13.60;99.90;;;;;;5094524;28;20034;-80
2022/10/20 08:15:56;;;;;;;13.13;6.30;;;13.60;99.90;;;;;;5095434;28;20118;-80
2022/10/20 08:18:22;;;;;;;10.90;6.05;;;13.60;99.90;;;;;;5092228;28;20484;-79
2022/10/20 08:20:47;;;;;;;12.02;6.45;;;13.60;99.90;;;;;;5092523;28;20041;-80
2022/10/20 08:23:13;;;;;;;10.18;5.93;;;13.60;99.90;;;;;;5093415;28;20438;-82
2022/10/20 08:25:39;;;;;;;13.15;6.43;;;13.70;99.90;;;;;;5094251;28;20024;-80
2022/10/20 08:28:06;;;;;;;22.45;8.10;;;13.70;99.90;;;;;;5081578;28;20036;-81
2022/10/20 08:30:32;;;;;;;13.10;6.50;;;13.70;99.90;;;;;;5081816;28;20245;-82
2022/10/20 08:32:58;;;;;;;17.52;6.60;;;13.80;99.90;;;;;;5083531;28;20470;-80
2022/10/20 08:35:24;;;;;;;13.10;7.47;;;13.90;99.90;;;;;;5082874;28;20102;-83
2022/10/20 08:37:49;;;;;;;12.25;6.30;;;14.00;99.90;;;;;;5084510;28;20041;-79
2022/10/20 08:40:19;;;;;;;9.52;5.63;;;14.00;99.90;;;;;;5084041;28;20373;-79
2022/10/20 08:42:45;;;;;;;14.82;6.10;;;14.20;99.90;;;;;;5084512;28;20039;-82
2022/10/20 08:45:25;;;;;;;10.73;6.18;;;14.20;99.90;;;;;;5079093;28;20028;-82
2022/10/20 08:47:55;;;;;;;13.32;6.30;;;14.30;99.90;;;;;;5082811;28;20028;-78
2022/10/20 08:50:21;;;;;;;10.93;6.00;;;14.30;99.90;;;;;;5082869;28;20028;-77
2022/10/20 08:52:51;;;;;;;15.73;6.55;;;14.30;99.90;;;;;;5078366;28;20016;-76
2022/10/20 08:55:32;;;;;;;16.02;7.15;;;14.40;99.90;;;;;;5083551;28;20036;-76
2022/10/20 08:58:11;;;;;;;13.20;7.00;;;14.40;99.90;;;;;;5084218;28;20028;-76
2022/10/20 09:00:38;;;;;;;16.08;6.57;;;14.50;99.90;;;;;;5082089;28;20473;-76
2022/10/20 09:03:15;;;;;;;12.05;6.18;;;14.60;99.90;;;;;;5080525;28;20535;-75
2022/10/20 09:05:44;;;;;;;14.35;7.00;;;14.70;99.90;;;;;;5080302;28;20048;-75
2022/10/20 09:08:09;;;;;;;13.48;6.90;;;14.70;99.90;;;;;;5084734;28;20392;-76
2022/10/20 09:10:38;;;;;;;16.38;6.63;;;14.80;99.90;;;;;;5082544;28;20024;-77
2022/10/20 09:13:20;;;;;;;11.00;6.03;;;14.90;99.90;;;;;;5086952;28;20028;-77
2022/10/20 09:15:47;;;;;;;11.15;5.90;;;14.90;99.90;;;;;;5083385;28;20036;-78
2022/10/20 09:18:14;;;;;;;11.73;5.85;;;15.00;99.90;;;;;;5081411;28;20037;-78
2022/10/20 09:20:57;;;;;;;14.02;6.05;;;15.00;99.90;;;;;;5083172;28;20028;-77
2022/10/20 09:23:29;;;;;;;12.88;6.88;;;15.00;99.90;;;;;;5083464;28;20205;-76
2022/10/20 09:26:13;;;;;;;12.70;6.65;;;15.10;99.90;;;;;;5084464;28;20528;-78
2022/10/20 09:28:39;;;;;;;10.73;6.55;;;15.00;99.90;;;;;;5085147;28;20058;-82
2022/10/20 09:31:23;;;;;;;13.45;6.82;;;15.10;99.90;;;;;;5106180;28;20110;-78
2022/10/20 09:33:49;;;;;;;9.95;5.88;;;15.00;99.90;;;;;;5088130;28;20066;-77
2022/10/20 09:36:17;;;;;;;12.00;6.38;;;15.00;99.90;;;;;;5089285;28;20075;-80
2022/10/20 09:38:48;;;;;;;13.05;6.45;;;15.00;99.90;;;;;;5085484;28;20032;-76
2022/10/20 09:41:20;;;;;;;15.77;6.40;;;15.00;99.90;;;;;;5097096;28;20028;-74
2022/10/20 09:44:00;;;;;;;16.08;6.95;;;15.10;99.90;;;;;;5090144;28;20028;-75
2022/10/20 09:46:29;;;;;;;13.80;6.90;;;15.20;99.90;;;;;;5115541;28;20094;-74
2022/10/20 09:48:55;;;;;;;13.30;6.30;;;15.20;99.90;;;;;;5096644;28;20052;-74
2022/10/20 09:51:26;;;;;;;11.55;6.45;;;15.20;99.90;;;;;;5111516;28;20099;-75
2022/10/20 09:54:06;;;;;;;10.25;6.45;;;15.20;99.90;;;;;;5096806;28;20023;-75
2022/10/20 09:56:33;;;;;;;11.73;7.15;;;15.30;99.90;;;;;;5095767;28;20035;-75
2022/10/20 09:59:04;;;;;;;13.60;6.60;;;15.40;99.90;;;;;;5091884;28;20019;-75
2022/10/20 10:01:29;;;;;;;12.80;7.20;;;15.40;99.90;;;;;;5087732;28;20028;-75
2022/10/20 10:04:00;;;;;;;15.48;7.78;;;15.50;99.90;;;;;;5095015;28;20038;-76
2022/10/20 10:06:40;;;;;;;12.40;6.65;;;15.50;99.90;;;;;;5094043;28;20030;-75
2022/10/20 10:09:31;;;;;;;16.48;6.90;;;15.50;99.90;;;;;;5111841;28;20024;-75
2022/10/20 10:12:12;;;;;;;16.50;7.18;;;15.50;99.90;;;;;;5092195;28;20024;-76
2022/10/20 10:15:14;;;;;;;15.75;7.72;;;15.50;99.90;;;;;;5092511;28;20023;-75
2022/10/20 10:17:42;;;;;;;11.88;6.95;;;15.60;99.90;;;;;;5107457;28;20106;-75
2022/10/20 10:20:11;;;;;;;16.20;7.47;;;15.60;99.90;;;;;;5108912;28;20032;-75
2022/10/20 10:22:38;;;;;;;12.43;7.00;;;15.70;99.90;;;;;;5095338;28;20081;-76
2022/10/20 10:25:05;;;;;;;15.75;7.15;;;15.80;99.90;;;;;;5089137;28;20568;-74
2022/10/20 10:27:35;;;;;;;13.35;6.75;;;15.70;99.90;;;;;;5086061;28;20126;-75
2022/10/20 10:30:34;;;;;;;12.75;6.68;;;15.70;99.90;;;;;;5095225;28;20032;-75
2022/10/20 10:33:00;;;;;;;17.83;7.57;;;15.70;99.90;;;;;;5036974;28;20028;-75
2022/10/20 10:35:32;;;;;;;13.25;6.60;;;15.70;99.90;;;;;;5075417;28;20496;-75
2022/10/20 10:37:58;;;;;;;14.38;7.10;;;15.70;99.90;;;;;;5089704;28;20106;-76
2022/10/20 10:40:36;;;;;;;14.48;7.20;;;15.60;99.90;;;;;;5095917;28;20037;-76
2022/10/20 10:43:28;;;;;;;16.48;6.75;;;15.60;99.90;;;;;;5079842;28;20055;-75
2022/10/20 10:46:07;;;;;;;15.65;7.13;;;15.50;99.90;;;;;;5096078;28;20387;-76
2022/10/20 10:48:47;;;;;;;21.77;7.28;;;15.40;99.90;;;;;;5089224;28;20042;-75
2022/10/20 10:51:45;;;;;;;15.27;6.57;;;15.40;99.90;;;;;;5084522;28;20059;-74
2022/10/20 10:54:33;;;;;;;12.95;7.07;;;15.50;99.90;;;;;;5083380;28;20047;-74
2022/10/20 10:57:17;;;;;;;11.82;6.28;;;15.60;99.90;;;;;;5075090;28;20024;-74
2022/10/20 10:59:43;;;;;;;14.05;6.65;;;15.50;99.90;;;;;;5078349;28;20026;-74
2022/10/20 11:02:24;;;;;;;12.88;7.30;;;15.60;99.90;;;;;;5088530;28;20024;-74
2022/10/20 11:05:13;;;;;;;14.00;7.28;;;15.60;99.90;;;;;;5104592;28;20031;-75
2022/10/20 11:08:00;;;;;;;17.45;6.78;;;15.70;99.90;;;;;;5089078;28;20324;-75
2022/10/20 11:10:46;;;;;;;10.88;6.28;;;15.70;99.90;;;;;;5079612;28;20081;-75
2022/10/20 11:13:32;;;;;;;12.77;6.47;;;15.70;99.90;;;;;;5094592;28;20036;-75
2022/10/20 11:16:28;;;;;;;12.98;6.13;;;15.70;99.90;;;;;;5086867;28;20023;-75
2022/10/20 11:18:59;;;;;;;13.52;6.75;;;15.70;99.90;;;;;;5084378;28;20043;-75
2022/10/20 11:21:34;;;;;;;15.85;6.93;;;15.70;99.90;;;;;;5080173;28;20035;-75
2022/10/20 11:24:20;;;;;;;12.73;6.25;;;15.60;99.90;;;;;;5106931;28;20076;-74
2022/10/20 11:26:51;;;;;;;12.80;6.53;;;15.70;99.90;;;;;;5088442;28;20433;-74
2022/10/20 11:29:36;;;;;;;12.38;6.38;;;15.80;99.90;;;;;;5091611;28;20070;-74
2022/10/20 11:32:27;;;;;;;15.70;7.05;;;15.90;99.90;;;;;;5090410;28;20069;-74
2022/10/20 11:35:13;;;;;;;10.55;6.75;;;15.90;99.90;;;;;;5081064;28;20020;-74
2022/10/20 11:37:54;;;;;;;11.52;6.45;;;16.00;99.90;;;;;;5088343;28;20189;-74
2022/10/20 11:40:29;;;;;;;13.93;6.45;;;16.00;99.90;;;;;;5084141;28;20024;-77
2022/10/20 11:43:04;;;;;;;13.07;6.68;;;16.00;99.90;;;;;;5088045;28;20024;-73
2022/10/20 11:45:38;;;;;;;12.93;6.38;;;15.90;99.90;;;;;;5086449;28;20098;-74
2022/10/20 11:48:22;;;;;;;10.80;6.13;;;16.00;99.90;;;;;;5086644;28;20024;-73
2022/10/20 11:51:04;;;;;;;13.27;5.97;;;16.00;99.90;;;;;;5090321;28;20055;-73
2022/10/20 11:53:42;;;;;;;16.80;6.60;;;16.00;99.90;;;;;;5073407;28;20081;-73
2022/10/20 11:56:39;;;;;;;12.52;6.00;;;15.90;99.90;;;;;;5090344;28;20039;-74
2022/10/20 11:59:22;;;;;;;15.30;6.18;;;15.80;99.90;;;;;;5087638;28;20024;-73
2022/10/20 12:02:03;;;;;;;13.88;6.20;;;15.80;99.90;;;;;;5087799;28;20020;-72
2022/10/20 12:04:56;;;;;;;10.50;5.75;;;15.90;99.90;;;;;;5083256;28;20028;-73
2022/10/20 12:07:30;;;;;;;10.77;6.68;;;15.90;99.90;;;;;;5087795;28;20036;-75
2022/10/20 12:10:25;;;;;;;10.52;6.70;;;15.90;99.90;;;;;;5080608;28;20506;-73
2022/10/20 12:12:59;;;;;;;12.43;6.38;;;16.00;99.90;;;;;;5085684;28;20495;-73
2022/10/20 12:15:26;;;;;;;12.50;6.38;;;16.00;99.90;;;;;;5087288;28;20442;-73
2022/10/20 12:17:57;;;;;;;15.27;6.60;;;16.00;99.90;;;;;;5090842;28;20115;-73
2022/10/20 12:20:22;;;;;;;9.77;5.80;;;16.00;99.90;;;;;;5090187;28;20507;-75
2022/10/20 12:22:52;;;;;;;9.98;6.07;;;16.00;99.90;;;;;;5091728;28;20020;-73
2022/10/20 12:25:23;;;;;;;11.07;6.28;;;15.90;99.90;;;;;;5079962;28;20124;-74
2022/10/20 12:28:08;;;;;;;;;;;16.00;99.90;;;;;;5098712;28;20040;-75
2022/10/20 12:30:36;;;;;;;10.82;5.93;;;16.00;99.90;;;;;;5084646;28;19908;-74
2022/10/20 12:33:18;;;;;;;13.52;6.60;;;16.00;99.90;;;;;;5079625;28;20024;-75
2022/10/20 12:36:17;;;;;;;13.55;6.70;;;16.10;99.90;;;;;;5093682;28;20139;-75
2022/10/20 12:38:48;;;;;;;10.55;6.07;;;16.00;99.90;;;;;;5093794;28;20613;-74
2022/10/20 12:41:35;;;;;;;13.88;6.28;;;16.00;99.90;;;;;;5078318;28;20472;-75
2022/10/20 12:44:04;;;;;;;12.57;6.20;;;16.10;99.90;;;;;;5083531;28;20020;-75
2022/10/20 12:46:32;;;;;;;12.55;6.50;;;16.10;99.90;;;;;;5093645;28;20425;-74
2022/10/20 12:49:05;;;;;;;12.15;6.57;;;16.10;99.90;;;;;;5080672;28;20024;-76
2022/10/20 12:51:49;;;;;;;12.18;6.40;;;16.10;99.90;;;;;;5091723;28;20076;-88
2022/10/20 12:54:39;;;;;;;11.27;6.75;;;16.20;99.90;;;;;;5082855;28;20031;-81
2022/10/20 12:57:41;;;;;;;12.45;7.00;;;16.20;99.90;;;;;;5095402;28;20422;-82
2022/10/20 13:00:20;;;;;;;11.85;6.45;;;16.20;99.90;;;;;;5081679;28;20027;-85